Adamsville, Rhode Island
Current Conditions -  °F | °C
As of 2:53 AM on Wednesday 22 Oct 2014 (Local Time) from KUUU Reporting Station
Overcast Overcast  
Wind Chill: 14°   Ceiling: 400
Heat Index: 14°   Visibility: 7mi
Dew Point: 12°   Wind: 13mph
Humidity: 89%   Direction: 20°NNE
Pressure: 29.92"   Gusts: NA
Location:  41.55°N, 71.13°W
Report Text: KUUU 220653Z AUTO 02011KT 7SM OVC004 14/12 A2992 RMK AO2 SLP131 T01390122
Loading
Personal Weather Stations






























Interactive Weather Map
Tropical Storm Tracking
New forecast layout! Learn more

10-Day Weather Forecast

Advertisements
Track Severe Weather on mobile